sensor_id;sensor_type;location;lat;lon;timestamp;P1;durP1;ratioP1;P2;durP2;ratioP2
53411;SDS011;39307;52.870;13.660;2023-02-28T00:01:52;5.05;;;1.80;;
53411;SDS011;39307;52.870;13.660;2023-02-28T00:07:33;3.72;;;1.67;;
53411;SDS011;39307;52.870;13.660;2023-02-28T00:09:59;5.53;;;1.80;;
53411;SDS011;39307;52.870;13.660;2023-02-28T00:12:25;4.35;;;1.50;;
53411;SDS011;39307;52.870;13.660;2023-02-28T00:14:52;4.00;;;1.77;;
53411;SDS011;39307;52.870;13.660;2023-02-28T00:17:18;4.30;;;1.70;;
53411;SDS011;39307;52.870;13.660;2023-02-28T00:19:45;4.70;;;1.52;;
53411;SDS011;39307;52.870;13.660;2023-02-28T00:22:11;4.13;;;1.50;;
53411;SDS011;39307;52.870;13.660;2023-02-28T00:24:37;5.00;;;1.77;;
53411;SDS011;39307;52.870;13.660;2023-02-28T00:27:03;4.45;;;1.55;;
53411;SDS011;39307;52.870;13.660;2023-02-28T00:29:30;3.33;;;1.42;;
53411;SDS011;39307;52.870;13.660;2023-02-28T00:31:56;3.47;;;1.40;;
53411;SDS011;39307;52.870;13.660;2023-02-28T00:34:22;3.05;;;1.48;;
53411;SDS011;39307;52.870;13.660;2023-02-28T00:36:48;4.25;;;1.50;;
53411;SDS011;39307;52.870;13.660;2023-02-28T00:39:15;3.97;;;1.75;;
53411;SDS011;39307;52.870;13.660;2023-02-28T00:41:41;3.95;;;1.80;;
53411;SDS011;39307;52.870;13.660;2023-02-28T00:44:07;4.13;;;1.55;;
53411;SDS011;39307;52.870;13.660;2023-02-28T00:46:34;4.60;;;1.60;;
53411;SDS011;39307;52.870;13.660;2023-02-28T00:49:00;5.03;;;1.85;;
53411;SDS011;39307;52.870;13.660;2023-02-28T00:51:26;5.13;;;1.90;;
53411;SDS011;39307;52.870;13.660;2023-02-28T00:53:52;4.10;;;1.60;;
53411;SDS011;39307;52.870;13.660;2023-02-28T00:56:19;3.83;;;1.70;;
53411;SDS011;39307;52.870;13.660;2023-02-28T00:58:45;4.65;;;1.50;;
53411;SDS011;39307;52.870;13.660;2023-02-28T01:01:11;6.53;;;2.00;;
53411;SDS011;39307;52.870;13.660;2023-02-28T01:03:37;3.90;;;1.80;;
53411;SDS011;39307;52.870;13.660;2023-02-28T01:06:04;4.57;;;1.73;;
53411;SDS011;39307;52.870;13.660;2023-02-28T01:08:30;4.83;;;1.80;;
53411;SDS011;39307;52.870;13.660;2023-02-28T01:10:56;5.38;;;1.65;;
53411;SDS011;39307;52.870;13.660;2023-02-28T01:13:23;13.75;;;2.10;;
53411;SDS011;39307;52.870;13.660;2023-02-28T01:15:50;4.20;;;1.73;;
53411;SDS011;39307;52.870;13.660;2023-02-28T01:18:18;4.80;;;1.83;;
53411;SDS011;39307;52.870;13.660;2023-02-28T01:20:44;5.47;;;2.05;;
53411;SDS011;39307;52.870;13.660;2023-02-28T01:23:11;4.97;;;2.10;;
53411;SDS011;39307;52.870;13.660;2023-02-28T01:25:37;4.20;;;1.90;;
53411;SDS011;39307;52.870;13.660;2023-02-28T01:28:04;4.40;;;1.80;;
53411;SDS011;39307;52.870;13.660;2023-02-28T01:30:30;4.60;;;2.08;;
53411;SDS011;39307;52.870;13.660;2023-02-28T01:32:57;4.60;;;2.00;;
53411;SDS011;39307;52.870;13.660;2023-02-28T01:35:24;4.40;;;1.83;;
53411;SDS011;39307;52.870;13.660;2023-02-28T01:37:50;5.65;;;2.20;;
53411;SDS011;39307;52.870;13.660;2023-02-28T01:40:16;5.35;;;2.20;;
53411;SDS011;39307;52.870;13.660;2023-02-28T01:42:42;5.50;;;2.30;;
53411;SDS011;39307;52.870;13.660;2023-02-28T01:45:16;5.70;;;2.20;;
53411;SDS011;39307;52.870;13.660;2023-02-28T01:47:52;4.30;;;1.90;;
53411;SDS011;39307;52.870;13.660;2023-02-28T01:50:25;6.10;;;2.83;;
53411;SDS011;39307;52.870;13.660;2023-02-28T01:52:56;6.37;;;2.63;;
53411;SDS011;39307;52.870;13.660;2023-02-28T01:55:26;5.30;;;2.60;;
53411;SDS011;39307;52.870;13.660;2023-02-28T01:57:55;7.70;;;2.47;;
53411;SDS011;39307;52.870;13.660;2023-02-28T02:00:25;5.68;;;2.50;;
53411;SDS011;39307;52.870;13.660;2023-02-28T02:02:57;5.85;;;2.50;;
53411;SDS011;39307;52.870;13.660;2023-02-28T02:05:31;6.28;;;2.70;;
53411;SDS011;39307;52.870;13.660;2023-02-28T02:08:00;5.28;;;2.50;;
53411;SDS011;39307;52.870;13.660;2023-02-28T02:10:36;6.32;;;2.53;;
53411;SDS011;39307;52.870;13.660;2023-02-28T02:13:24;5.03;;;2.20;;
53411;SDS011;39307;52.870;13.660;2023-02-28T02:16:02;4.55;;;1.88;;
53411;SDS011;39307;52.870;13.660;2023-02-28T02:21:16;5.47;;;2.30;;
53411;SDS011;39307;52.870;13.660;2023-02-28T02:29:13;6.68;;;2.45;;
53411;SDS011;39307;52.870;13.660;2023-02-28T02:34:40;6.20;;;2.40;;
53411;SDS011;39307;52.870;13.660;2023-02-28T02:42:42;5.43;;;2.53;;
53411;SDS011;39307;52.870;13.660;2023-02-28T02:45:16;6.35;;;2.88;;
53411;SDS011;39307;52.870;13.660;2023-02-28T02:47:50;6.30;;;3.00;;
53411;SDS011;39307;52.870;13.660;2023-02-28T02:50:24;7.25;;;3.00;;
53411;SDS011;39307;52.870;13.660;2023-02-28T02:52:55;7.07;;;3.10;;
53411;SDS011;39307;52.870;13.660;2023-02-28T02:55:25;8.57;;;2.93;;
53411;SDS011;39307;52.870;13.660;2023-02-28T02:57:53;6.95;;;2.80;;
53411;SDS011;39307;52.870;13.660;2023-02-28T03:00:29;5.47;;;2.87;;
53411;SDS011;39307;52.870;13.660;2023-02-28T03:03:00;6.55;;;3.10;;
53411;SDS011;39307;52.870;13.660;2023-02-28T03:05:46;7.75;;;3.40;;
53411;SDS011;39307;52.870;13.660;2023-02-28T03:08:14;7.83;;;3.43;;
53411;SDS011;39307;52.870;13.660;2023-02-28T03:10:45;8.57;;;3.28;;
53411;SDS011;39307;52.870;13.660;2023-02-28T03:22:31;5.38;;;2.80;;
53411;SDS011;39307;52.870;13.660;2023-02-28T03:24:43;7.47;;;3.22;;
53411;SDS011;39307;52.870;13.660;2023-02-28T03:30:03;6.63;;;3.28;;
53411;SDS011;39307;52.870;13.660;2023-02-28T03:32:37;8.23;;;3.38;;
53411;SDS011;39307;52.870;13.660;2023-02-28T03:35:20;6.65;;;3.10;;
53411;SDS011;39307;52.870;13.660;2023-02-28T03:37:53;7.30;;;3.30;;
53411;SDS011;39307;52.870;13.660;2023-02-28T03:40:41;7.57;;;3.20;;
53411;SDS011;39307;52.870;13.660;2023-02-28T03:43:14;7.88;;;3.50;;
53411;SDS011;39307;52.870;13.660;2023-02-28T03:45:48;8.07;;;3.33;;
53411;SDS011;39307;52.870;13.660;2023-02-28T03:51:19;6.97;;;2.97;;
53411;SDS011;39307;52.870;13.660;2023-02-28T03:53:53;7.10;;;3.30;;
53411;SDS011;39307;52.870;13.660;2023-02-28T03:57:10;8.10;;;3.50;;
53411;SDS011;39307;52.870;13.660;2023-02-28T03:59:31;8.00;;;3.45;;
53411;SDS011;39307;52.870;13.660;2023-02-28T04:02:03;8.50;;;3.30;;
53411;SDS011;39307;52.870;13.660;2023-02-28T04:04:30;8.05;;;3.67;;
53411;SDS011;39307;52.870;13.660;2023-02-28T04:07:03;9.65;;;3.50;;
53411;SDS011;39307;52.870;13.660;2023-02-28T04:09:31;8.40;;;3.50;;
53411;SDS011;39307;52.870;13.660;2023-02-28T04:11:57;8.10;;;3.67;;
53411;SDS011;39307;52.870;13.660;2023-02-28T04:14:23;7.28;;;3.30;;
53411;SDS011;39307;52.870;13.660;2023-02-28T04:16:50;6.43;;;2.97;;
53411;SDS011;39307;52.870;13.660;2023-02-28T04:19:16;6.65;;;3.00;;
53411;SDS011;39307;52.870;13.660;2023-02-28T04:21:44;6.97;;;3.03;;
53411;SDS011;39307;52.870;13.660;2023-02-28T04:24:16;8.85;;;3.20;;
53411;SDS011;39307;52.870;13.660;2023-02-28T04:26:48;6.43;;;2.80;;
53411;SDS011;39307;52.870;13.660;2023-02-28T04:29:21;7.00;;;2.90;;
53411;SDS011;39307;52.870;13.660;2023-02-28T04:31:49;6.65;;;2.88;;
53411;SDS011;39307;52.870;13.660;2023-02-28T04:34:16;6.53;;;2.85;;
53411;SDS011;39307;52.870;13.660;2023-02-28T04:36:42;6.40;;;2.92;;
53411;SDS011;39307;52.870;13.660;2023-02-28T04:39:08;7.47;;;3.20;;
53411;SDS011;39307;52.870;13.660;2023-02-28T04:41:34;6.63;;;3.00;;
53411;SDS011;39307;52.870;13.660;2023-02-28T04:44:01;6.95;;;2.78;;
53411;SDS011;39307;52.870;13.660;2023-02-28T04:46:27;7.28;;;2.75;;
53411;SDS011;39307;52.870;13.660;2023-02-28T04:48:53;5.73;;;2.30;;
53411;SDS011;39307;52.870;13.660;2023-02-28T04:51:20;6.97;;;2.80;;
53411;SDS011;39307;52.870;13.660;2023-02-28T04:53:46;6.30;;;2.53;;
53411;SDS011;39307;52.870;13.660;2023-02-28T04:56:14;7.18;;;2.78;;
53411;SDS011;39307;52.870;13.660;2023-02-28T04:58:41;6.00;;;2.90;;
53411;SDS011;39307;52.870;13.660;2023-02-28T05:01:16;5.82;;;2.33;;
53411;SDS011;39307;52.870;13.660;2023-02-28T05:03:46;8.65;;;4.20;;
53411;SDS011;39307;52.870;13.660;2023-02-28T05:06:13;6.20;;;2.58;;
53411;SDS011;39307;52.870;13.660;2023-02-28T05:08:42;7.78;;;2.63;;
53411;SDS011;39307;52.870;13.660;2023-02-28T05:11:13;6.95;;;3.28;;
53411;SDS011;39307;52.870;13.660;2023-02-28T05:13:44;8.27;;;3.90;;
53411;SDS011;39307;52.870;13.660;2023-02-28T05:16:11;9.65;;;5.10;;
53411;SDS011;39307;52.870;13.660;2023-02-28T05:18:37;9.52;;;5.60;;
53411;SDS011;39307;52.870;13.660;2023-02-28T05:21:04;8.23;;;4.50;;
53411;SDS011;39307;52.870;13.660;2023-02-28T05:23:30;14.00;;;7.97;;
53411;SDS011;39307;52.870;13.660;2023-02-28T05:25:57;17.80;;;11.32;;
53411;SDS011;39307;52.870;13.660;2023-02-28T05:28:23;14.60;;;9.38;;
53411;SDS011;39307;52.870;13.660;2023-02-28T05:30:49;14.25;;;8.45;;
53411;SDS011;39307;52.870;13.660;2023-02-28T05:33:16;16.38;;;10.02;;
53411;SDS011;39307;52.870;13.660;2023-02-28T05:35:42;19.50;;;11.27;;
53411;SDS011;39307;52.870;13.660;2023-02-28T05:38:08;20.67;;;13.32;;
53411;SDS011;39307;52.870;13.660;2023-02-28T05:40:34;21.95;;;13.48;;
53411;SDS011;39307;52.870;13.660;2023-02-28T05:43:04;19.75;;;11.18;;
53411;SDS011;39307;52.870;13.660;2023-02-28T05:45:30;17.70;;;9.60;;
53411;SDS011;39307;52.870;13.660;2023-02-28T05:47:56;18.67;;;10.13;;
53411;SDS011;39307;52.870;13.660;2023-02-28T05:50:22;22.95;;;13.45;;
53411;SDS011;39307;52.870;13.660;2023-02-28T05:52:49;27.08;;;16.42;;
53411;SDS011;39307;52.870;13.660;2023-02-28T05:55:16;21.83;;;13.63;;
53411;SDS011;39307;52.870;13.660;2023-02-28T05:57:42;19.08;;;11.40;;
53411;SDS011;39307;52.870;13.660;2023-02-28T06:00:09;24.02;;;13.93;;
53411;SDS011;39307;52.870;13.660;2023-02-28T06:02:35;27.00;;;16.52;;
53411;SDS011;39307;52.870;13.660;2023-02-28T06:05:01;24.42;;;13.90;;
53411;SDS011;39307;52.870;13.660;2023-02-28T06:07:27;10.35;;;5.65;;
53411;SDS011;39307;52.870;13.660;2023-02-28T06:09:53;6.30;;;3.38;;
53411;SDS011;39307;52.870;13.660;2023-02-28T06:12:20;7.57;;;3.40;;
53411;SDS011;39307;52.870;13.660;2023-02-28T06:14:46;9.00;;;4.00;;
53411;SDS011;39307;52.870;13.660;2023-02-28T06:17:12;8.30;;;3.80;;
53411;SDS011;39307;52.870;13.660;2023-02-28T06:19:38;7.35;;;3.30;;
53411;SDS011;39307;52.870;13.660;2023-02-28T06:22:04;7.20;;;3.47;;
53411;SDS011;39307;52.870;13.660;2023-02-28T06:24:30;9.15;;;4.47;;
53411;SDS011;39307;52.870;13.660;2023-02-28T06:26:56;9.57;;;4.75;;
53411;SDS011;39307;52.870;13.660;2023-02-28T06:29:23;10.15;;;5.15;;
53411;SDS011;39307;52.870;13.660;2023-02-28T06:31:49;10.43;;;4.75;;
53411;SDS011;39307;52.870;13.660;2023-02-28T06:34:15;10.38;;;4.72;;
53411;SDS011;39307;52.870;13.660;2023-02-28T06:36:42;10.57;;;5.00;;
53411;SDS011;39307;52.870;13.660;2023-02-28T06:39:08;12.43;;;7.20;;
53411;SDS011;39307;52.870;13.660;2023-02-28T06:41:35;25.38;;;16.40;;
53411;SDS011;39307;52.870;13.660;2023-02-28T06:44:01;24.73;;;15.88;;
53411;SDS011;39307;52.870;13.660;2023-02-28T06:46:27;17.55;;;10.23;;
53411;SDS011;39307;52.870;13.660;2023-02-28T06:48:54;10.55;;;5.95;;
53411;SDS011;39307;52.870;13.660;2023-02-28T06:51:20;15.18;;;7.72;;
53411;SDS011;39307;52.870;13.660;2023-02-28T06:53:46;23.67;;;14.50;;
53411;SDS011;39307;52.870;13.660;2023-02-28T06:56:13;24.08;;;15.77;;
53411;SDS011;39307;52.870;13.660;2023-02-28T06:58:41;25.65;;;14.57;;
53411;SDS011;39307;52.870;13.660;2023-02-28T07:01:08;19.40;;;11.63;;
53411;SDS011;39307;52.870;13.660;2023-02-28T07:03:37;13.20;;;8.23;;
53411;SDS011;39307;52.870;13.660;2023-02-28T07:06:04;11.35;;;6.20;;
53411;SDS011;39307;52.870;13.660;2023-02-28T07:08:31;12.17;;;6.37;;
53411;SDS011;39307;52.870;13.660;2023-02-28T07:10:57;12.50;;;6.57;;
53411;SDS011;39307;52.870;13.660;2023-02-28T07:13:24;10.95;;;6.10;;
53411;SDS011;39307;52.870;13.660;2023-02-28T07:15:58;9.45;;;5.60;;
53411;SDS011;39307;52.870;13.660;2023-02-28T07:18:26;9.97;;;5.23;;
53411;SDS011;39307;52.870;13.660;2023-02-28T07:20:52;10.13;;;5.43;;
53411;SDS011;39307;52.870;13.660;2023-02-28T07:23:19;11.30;;;5.90;;
53411;SDS011;39307;52.870;13.660;2023-02-28T07:25:45;11.27;;;5.70;;
53411;SDS011;39307;52.870;13.660;2023-02-28T07:28:12;11.88;;;6.43;;
53411;SDS011;39307;52.870;13.660;2023-02-28T07:30:39;13.63;;;7.22;;
53411;SDS011;39307;52.870;13.660;2023-02-28T07:33:05;19.63;;;11.30;;
53411;SDS011;39307;52.870;13.660;2023-02-28T07:35:32;24.00;;;15.50;;
53411;SDS011;39307;52.870;13.660;2023-02-28T07:37:58;32.53;;;20.20;;
53411;SDS011;39307;52.870;13.660;2023-02-28T07:40:25;30.03;;;18.67;;
53411;SDS011;39307;52.870;13.660;2023-02-28T07:42:51;24.20;;;15.13;;
53411;SDS011;39307;52.870;13.660;2023-02-28T07:45:18;31.90;;;18.92;;
53411;SDS011;39307;52.870;13.660;2023-02-28T07:47:44;35.13;;;22.15;;
53411;SDS011;39307;52.870;13.660;2023-02-28T07:50:12;64.30;;;41.53;;
53411;SDS011;39307;52.870;13.660;2023-02-28T07:52:40;76.07;;;51.33;;
53411;SDS011;39307;52.870;13.660;2023-02-28T07:55:07;68.15;;;46.50;;
53411;SDS011;39307;52.870;13.660;2023-02-28T07:57:34;51.08;;;34.70;;
53411;SDS011;39307;52.870;13.660;2023-02-28T08:00:00;42.20;;;28.40;;
53411;SDS011;39307;52.870;13.660;2023-02-28T08:02:27;34.77;;;21.23;;
53411;SDS011;39307;52.870;13.660;2023-02-28T08:04:53;29.20;;;19.90;;
53411;SDS011;39307;52.870;13.660;2023-02-28T08:07:19;41.05;;;26.90;;
53411;SDS011;39307;52.870;13.660;2023-02-28T08:09:46;34.92;;;25.42;;
53411;SDS011;39307;52.870;13.660;2023-02-28T08:12:11;23.35;;;15.80;;
53411;SDS011;39307;52.870;13.660;2023-02-28T08:14:37;16.55;;;11.18;;
53411;SDS011;39307;52.870;13.660;2023-02-28T08:17:03;15.55;;;9.65;;
53411;SDS011;39307;52.870;13.660;2023-02-28T08:19:29;19.75;;;12.43;;
53411;SDS011;39307;52.870;13.660;2023-02-28T08:21:56;21.35;;;14.88;;
53411;SDS011;39307;52.870;13.660;2023-02-28T08:24:22;19.77;;;13.83;;
53411;SDS011;39307;52.870;13.660;2023-02-28T08:26:48;18.60;;;11.82;;
53411;SDS011;39307;52.870;13.660;2023-02-28T08:29:14;16.92;;;10.75;;
53411;SDS011;39307;52.870;13.660;2023-02-28T08:31:41;26.92;;;19.73;;
53411;SDS011;39307;52.870;13.660;2023-02-28T08:34:07;43.78;;;33.05;;
53411;SDS011;39307;52.870;13.660;2023-02-28T08:36:34;45.88;;;35.15;;
53411;SDS011;39307;52.870;13.660;2023-02-28T08:39:00;38.53;;;27.77;;
53411;SDS011;39307;52.870;13.660;2023-02-28T08:41:27;37.92;;;27.17;;
53411;SDS011;39307;52.870;13.660;2023-02-28T08:43:53;31.77;;;22.35;;
53411;SDS011;39307;52.870;13.660;2023-02-28T08:46:19;28.75;;;19.55;;
53411;SDS011;39307;52.870;13.660;2023-02-28T08:48:46;29.07;;;19.10;;
53411;SDS011;39307;52.870;13.660;2023-02-28T08:51:13;25.85;;;17.58;;
53411;SDS011;39307;52.870;13.660;2023-02-28T08:53:41;29.42;;;18.35;;
53411;SDS011;39307;52.870;13.660;2023-02-28T08:56:09;29.48;;;20.40;;
53411;SDS011;39307;52.870;13.660;2023-02-28T08:58:38;36.25;;;24.65;;
53411;SDS011;39307;52.870;13.660;2023-02-28T09:01:11;24.23;;;17.50;;
53411;SDS011;39307;52.870;13.660;2023-02-28T09:03:39;19.08;;;12.18;;
53411;SDS011;39307;52.870;13.660;2023-02-28T09:06:06;17.33;;;11.40;;
53411;SDS011;39307;52.870;13.660;2023-02-28T09:08:33;17.73;;;11.27;;
53411;SDS011;39307;52.870;13.660;2023-02-28T09:10:59;17.52;;;10.50;;
53411;SDS011;39307;52.870;13.660;2023-02-28T09:13:26;18.90;;;10.65;;
53411;SDS011;39307;52.870;13.660;2023-02-28T09:15:53;15.70;;;10.18;;
53411;SDS011;39307;52.870;13.660;2023-02-28T09:18:19;14.80;;;8.95;;
53411;SDS011;39307;52.870;13.660;2023-02-28T09:20:45;14.00;;;8.25;;
53411;SDS011;39307;52.870;13.660;2023-02-28T09:23:12;14.20;;;8.40;;
53411;SDS011;39307;52.870;13.660;2023-02-28T09:25:44;13.57;;;6.95;;
53411;SDS011;39307;52.870;13.660;2023-02-28T09:28:16;12.10;;;6.80;;
53411;SDS011;39307;52.870;13.660;2023-02-28T09:30:46;11.07;;;6.05;;
53411;SDS011;39307;52.870;13.660;2023-02-28T09:33:14;9.37;;;5.20;;
53411;SDS011;39307;52.870;13.660;2023-02-28T09:35:41;10.75;;;5.70;;
53411;SDS011;39307;52.870;13.660;2023-02-28T09:38:09;30.60;;;16.37;;
53411;SDS011;39307;52.870;13.660;2023-02-28T09:40:41;11.70;;;5.93;;
53411;SDS011;39307;52.870;13.660;2023-02-28T09:43:12;22.08;;;13.95;;
53411;SDS011;39307;52.870;13.660;2023-02-28T09:45:41;9.35;;;5.40;;
53411;SDS011;39307;52.870;13.660;2023-02-28T09:48:54;9.25;;;5.03;;
53411;SDS011;39307;52.870;13.660;2023-02-28T09:51:09;16.58;;;11.05;;
53411;SDS011;39307;52.870;13.660;2023-02-28T09:53:38;11.73;;;6.70;;
53411;SDS011;39307;52.870;13.660;2023-02-28T09:56:08;10.83;;;6.27;;
53411;SDS011;39307;52.870;13.660;2023-02-28T09:58:44;10.57;;;5.68;;
53411;SDS011;39307;52.870;13.660;2023-02-28T10:04:16;16.55;;;10.45;;
53411;SDS011;39307;52.870;13.660;2023-02-28T10:07:00;6.50;;;3.03;;
53411;SDS011;39307;52.870;13.660;2023-02-28T10:09:32;11.32;;;6.72;;
53411;SDS011;39307;52.870;13.660;2023-02-28T10:12:04;12.38;;;6.78;;
53411;SDS011;39307;52.870;13.660;2023-02-28T10:14:33;7.22;;;3.25;;
53411;SDS011;39307;52.870;13.660;2023-02-28T10:17:10;6.43;;;3.20;;
53411;SDS011;39307;52.870;13.660;2023-02-28T10:22:36;6.27;;;3.00;;
53411;SDS011;39307;52.870;13.660;2023-02-28T10:25:25;6.68;;;3.30;;
53411;SDS011;39307;52.870;13.660;2023-02-28T10:27:56;7.43;;;3.50;;
53411;SDS011;39307;52.870;13.660;2023-02-28T10:30:49;9.35;;;4.22;;
53411;SDS011;39307;52.870;13.660;2023-02-28T10:33:21;8.52;;;4.47;;
53411;SDS011;39307;52.870;13.660;2023-02-28T10:35:49;7.40;;;3.72;;
53411;SDS011;39307;52.870;13.660;2023-02-28T10:38:20;7.45;;;4.05;;
53411;SDS011;39307;52.870;13.660;2023-02-28T10:40:48;7.93;;;3.35;;
53411;SDS011;39307;52.870;13.660;2023-02-28T10:45:57;8.95;;;4.57;;
53411;SDS011;39307;52.870;13.660;2023-02-28T10:48:39;5.65;;;2.38;;
53411;SDS011;39307;52.870;13.660;2023-02-28T10:51:11;10.10;;;4.80;;
53411;SDS011;39307;52.870;13.660;2023-02-28T10:53:54;8.75;;;4.35;;
53411;SDS011;39307;52.870;13.660;2023-02-28T10:56:21;3.90;;;1.50;;
53411;SDS011;39307;52.870;13.660;2023-02-28T10:58:54;5.72;;;2.33;;
53411;SDS011;39307;52.870;13.660;2023-02-28T11:01:38;9.20;;;4.32;;
53411;SDS011;39307;52.870;13.660;2023-02-28T11:04:48;19.33;;;11.27;;
53411;SDS011;39307;52.870;13.660;2023-02-28T11:06:56;7.93;;;3.88;;
53411;SDS011;39307;52.870;13.660;2023-02-28T11:09:38;8.70;;;5.15;;
53411;SDS011;39307;52.870;13.660;2023-02-28T11:12:07;32.83;;;24.60;;
53411;SDS011;39307;52.870;13.660;2023-02-28T11:15:04;8.57;;;5.00;;
53411;SDS011;39307;52.870;13.660;2023-02-28T11:18:15;5.07;;;2.35;;
53411;SDS011;39307;52.870;13.660;2023-02-28T11:20:47;3.97;;;1.80;;
53411;SDS011;39307;52.870;13.660;2023-02-28T11:23:16;5.33;;;2.10;;
53411;SDS011;39307;52.870;13.660;2023-02-28T11:25:53;5.28;;;2.20;;
53411;SDS011;39307;52.870;13.660;2023-02-28T11:28:33;4.70;;;2.20;;
53411;SDS011;39307;52.870;13.660;2023-02-28T11:36:23;5.70;;;2.30;;
53411;SDS011;39307;52.870;13.660;2023-02-28T11:38:52;11.07;;;6.25;;
53411;SDS011;39307;52.870;13.660;2023-02-28T11:46:56;9.37;;;4.17;;
53411;SDS011;39307;52.870;13.660;2023-02-28T11:51:59;10.77;;;7.22;;
53411;SDS011;39307;52.870;13.660;2023-02-28T12:00:15;5.40;;;2.78;;
53411;SDS011;39307;52.870;13.660;2023-02-28T12:05:40;6.80;;;3.53;;
53411;SDS011;39307;52.870;13.660;2023-02-28T12:14:06;6.13;;;3.10;;
53411;SDS011;39307;52.870;13.660;2023-02-28T12:19:58;6.50;;;3.08;;
53411;SDS011;39307;52.870;13.660;2023-02-28T12:22:37;7.28;;;3.65;;
53411;SDS011;39307;52.870;13.660;2023-02-28T12:25:19;8.00;;;3.50;;
53411;SDS011;39307;52.870;13.660;2023-02-28T12:27:57;6.65;;;3.17;;
53411;SDS011;39307;52.870;13.660;2023-02-28T12:30:47;5.45;;;2.67;;
53411;SDS011;39307;52.870;13.660;2023-02-28T12:33:33;58.00;;;36.35;;
53411;SDS011;39307;52.870;13.660;2023-02-28T12:36:09;5.95;;;3.13;;
53411;SDS011;39307;52.870;13.660;2023-02-28T12:39:02;5.10;;;2.88;;
53411;SDS011;39307;52.870;13.660;2023-02-28T12:41:42;5.97;;;2.90;;
53411;SDS011;39307;52.870;13.660;2023-02-28T12:44:17;6.03;;;3.05;;
53411;SDS011;39307;52.870;13.660;2023-02-28T12:46:54;7.28;;;3.13;;
53411;SDS011;39307;52.870;13.660;2023-02-28T12:49:27;5.97;;;3.13;;
53411;SDS011;39307;52.870;13.660;2023-02-28T12:52:04;11.43;;;4.80;;
53411;SDS011;39307;52.870;13.660;2023-02-28T12:54:35;7.25;;;3.00;;
53411;SDS011;39307;52.870;13.660;2023-02-28T13:00:20;6.03;;;3.30;;
53411;SDS011;39307;52.870;13.660;2023-02-28T13:02:52;5.97;;;2.90;;
53411;SDS011;39307;52.870;13.660;2023-02-28T13:05:46;6.95;;;3.33;;
53411;SDS011;39307;52.870;13.660;2023-02-28T13:11:27;8.82;;;5.65;;
53411;SDS011;39307;52.870;13.660;2023-02-28T13:14:00;10.52;;;6.78;;
53411;SDS011;39307;52.870;13.660;2023-02-28T13:16:42;8.93;;;4.63;;
53411;SDS011;39307;52.870;13.660;2023-02-28T13:19:17;5.97;;;3.00;;
53411;SDS011;39307;52.870;13.660;2023-02-28T13:21:47;5.35;;;2.65;;
53411;SDS011;39307;52.870;13.660;2023-02-28T13:24:35;9.40;;;5.00;;
53411;SDS011;39307;52.870;13.660;2023-02-28T13:33:21;16.58;;;7.05;;
53411;SDS011;39307;52.870;13.660;2023-02-28T13:44:17;5.60;;;2.60;;
53411;SDS011;39307;52.870;13.660;2023-02-28T13:51:49;22.92;;;11.50;;
53411;SDS011;39307;52.870;13.660;2023-02-28T13:54:39;14.20;;;7.38;;
53411;SDS011;39307;52.870;13.660;2023-02-28T14:05:40;5.97;;;3.00;;
53411;SDS011;39307;52.870;13.660;2023-02-28T14:10:44;8.45;;;3.85;;
53411;SDS011;39307;52.870;13.660;2023-02-28T14:16:13;13.00;;;5.47;;
53411;SDS011;39307;52.870;13.660;2023-02-28T14:18:51;13.38;;;6.10;;
53411;SDS011;39307;52.870;13.660;2023-02-28T14:21:29;7.40;;;3.20;;
53411;SDS011;39307;52.870;13.660;2023-02-28T14:24:10;13.67;;;6.10;;
53411;SDS011;39307;52.870;13.660;2023-02-28T14:26:55;17.00;;;9.13;;
53411;SDS011;39307;52.870;13.660;2023-02-28T14:35:20;5.70;;;2.70;;
53411;SDS011;39307;52.870;13.660;2023-02-28T14:37:51;5.72;;;2.97;;
53411;SDS011;39307;52.870;13.660;2023-02-28T14:40:25;5.72;;;2.88;;
53411;SDS011;39307;52.870;13.660;2023-02-28T14:42:57;6.10;;;2.80;;
53411;SDS011;39307;52.870;13.660;2023-02-28T14:45:25;6.72;;;3.40;;
53411;SDS011;39307;52.870;13.660;2023-02-28T14:47:55;5.55;;;2.95;;
53411;SDS011;39307;52.870;13.660;2023-02-28T14:50:24;6.05;;;3.00;;
53411;SDS011;39307;52.870;13.660;2023-02-28T14:52:55;11.00;;;6.85;;
53411;SDS011;39307;52.870;13.660;2023-02-28T14:55:26;5.30;;;2.97;;
53411;SDS011;39307;52.870;13.660;2023-02-28T14:58:03;7.40;;;3.00;;
53411;SDS011;39307;52.870;13.660;2023-02-28T15:00:32;5.13;;;2.67;;
53411;SDS011;39307;52.870;13.660;2023-02-28T15:03:00;6.18;;;2.67;;
53411;SDS011;39307;52.870;13.660;2023-02-28T15:05:47;6.28;;;2.92;;
53411;SDS011;39307;52.870;13.660;2023-02-28T15:08:21;15.32;;;6.03;;
53411;SDS011;39307;52.870;13.660;2023-02-28T15:13:18;7.43;;;3.72;;
53411;SDS011;39307;52.870;13.660;2023-02-28T15:15:46;5.90;;;2.67;;
53411;SDS011;39307;52.870;13.660;2023-02-28T15:18:26;6.68;;;2.80;;
53411;SDS011;39307;52.870;13.660;2023-02-28T15:21:00;23.40;;;15.55;;
53411;SDS011;39307;52.870;13.660;2023-02-28T15:23:32;12.57;;;8.75;;
53411;SDS011;39307;52.870;13.660;2023-02-28T15:26:02;27.65;;;19.58;;
53411;SDS011;39307;52.870;13.660;2023-02-28T15:28:28;17.95;;;12.52;;
53411;SDS011;39307;52.870;13.660;2023-02-28T15:31:00;5.68;;;2.53;;
53411;SDS011;39307;52.870;13.660;2023-02-28T15:33:33;7.50;;;4.33;;
53411;SDS011;39307;52.870;13.660;2023-02-28T15:36:10;13.07;;;7.50;;
53411;SDS011;39307;52.870;13.660;2023-02-28T15:38:44;10.80;;;5.47;;
53411;SDS011;39307;52.870;13.660;2023-02-28T15:41:26;6.22;;;3.00;;
53411;SDS011;39307;52.870;13.660;2023-02-28T15:47:02;4.80;;;2.30;;
53411;SDS011;39307;52.870;13.660;2023-02-28T15:49:45;4.45;;;2.33;;
53411;SDS011;39307;52.870;13.660;2023-02-28T15:52:23;5.68;;;2.30;;
53411;SDS011;39307;52.870;13.660;2023-02-28T15:54:55;4.97;;;2.20;;
53411;SDS011;39307;52.870;13.660;2023-02-28T15:57:27;4.88;;;2.15;;
53411;SDS011;39307;52.870;13.660;2023-02-28T15:59:55;4.77;;;2.23;;
53411;SDS011;39307;52.870;13.660;2023-02-28T16:02:32;5.22;;;2.00;;
53411;SDS011;39307;52.870;13.660;2023-02-28T16:05:01;10.57;;;2.83;;
53411;SDS011;39307;52.870;13.660;2023-02-28T16:07:34;6.30;;;2.33;;
53411;SDS011;39307;52.870;13.660;2023-02-28T16:10:05;4.40;;;2.00;;
53411;SDS011;39307;52.870;13.660;2023-02-28T16:12:35;4.43;;;2.13;;
53411;SDS011;39307;52.870;13.660;2023-02-28T16:15:06;5.20;;;2.03;;
53411;SDS011;39307;52.870;13.660;2023-02-28T16:17:35;5.43;;;1.92;;
53411;SDS011;39307;52.870;13.660;2023-02-28T16:20:18;3.88;;;1.90;;
53411;SDS011;39307;52.870;13.660;2023-02-28T16:22:46;3.50;;;1.73;;
53411;SDS011;39307;52.870;13.660;2023-02-28T16:25:14;4.53;;;2.03;;
53411;SDS011;39307;52.870;13.660;2023-02-28T16:27:42;5.03;;;2.20;;
53411;SDS011;39307;52.870;13.660;2023-02-28T16:30:15;3.92;;;1.80;;
53411;SDS011;39307;52.870;13.660;2023-02-28T16:32:51;3.77;;;1.70;;
53411;SDS011;39307;52.870;13.660;2023-02-28T16:35:20;4.38;;;1.92;;
53411;SDS011;39307;52.870;13.660;2023-02-28T16:37:47;4.10;;;1.98;;
53411;SDS011;39307;52.870;13.660;2023-02-28T16:40:17;4.93;;;2.13;;
53411;SDS011;39307;52.870;13.660;2023-02-28T16:42:45;4.32;;;1.90;;
53411;SDS011;39307;52.870;13.660;2023-02-28T16:45:20;3.80;;;1.70;;
53411;SDS011;39307;52.870;13.660;2023-02-28T16:47:49;3.75;;;1.63;;
53411;SDS011;39307;52.870;13.660;2023-02-28T16:50:17;4.23;;;1.80;;
53411;SDS011;39307;52.870;13.660;2023-02-28T16:52:46;4.47;;;2.00;;